sensor_id;sensor_type;location;lat;lon;timestamp;P1;durP1;ratioP1;P2;durP2;ratioP2
28531;SDS011;15738;44.860;10.066;2022-09-01T00:01:31;20.52;;;10.75;;
28531;SDS011;15738;44.860;10.066;2022-09-01T00:04:19;19.15;;;11.63;;
28531;SDS011;15738;44.860;10.066;2022-09-01T00:07:11;17.98;;;11.45;;
28531;SDS011;15738;44.860;10.066;2022-09-01T00:09:58;16.65;;;10.90;;
28531;SDS011;15738;44.860;10.066;2022-09-01T00:12:45;16.73;;;10.88;;
28531;SDS011;15738;44.860;10.066;2022-09-01T00:15:31;14.27;;;10.70;;
28531;SDS011;15738;44.860;10.066;2022-09-01T00:18:18;16.17;;;10.43;;
28531;SDS011;15738;44.860;10.066;2022-09-01T00:21:04;22.60;;;10.77;;
28531;SDS011;15738;44.860;10.066;2022-09-01T00:23:50;14.40;;;10.32;;
28531;SDS011;15738;44.860;10.066;2022-09-01T00:26:37;17.38;;;11.55;;
28531;SDS011;15738;44.860;10.066;2022-09-01T00:29:24;21.67;;;10.63;;
28531;SDS011;15738;44.860;10.066;2022-09-01T00:32:11;18.42;;;10.63;;
28531;SDS011;15738;44.860;10.066;2022-09-01T00:34:56;20.42;;;10.48;;
28531;SDS011;15738;44.860;10.066;2022-09-01T00:37:42;17.75;;;10.90;;
28531;SDS011;15738;44.860;10.066;2022-09-01T00:40:29;12.43;;;8.82;;
28531;SDS011;15738;44.860;10.066;2022-09-01T00:44:02;16.20;;;9.10;;
28531;SDS011;15738;44.860;10.066;2022-09-01T00:46:29;11.68;;;8.52;;
28531;SDS011;15738;44.860;10.066;2022-09-01T00:49:28;15.85;;;8.32;;
28531;SDS011;15738;44.860;10.066;2022-09-01T00:52:21;15.10;;;7.03;;
28531;SDS011;15738;44.860;10.066;2022-09-01T00:55:23;10.10;;;5.75;;
28531;SDS011;15738;44.860;10.066;2022-09-01T00:58:16;9.88;;;6.55;;
28531;SDS011;15738;44.860;10.066;2022-09-01T01:01:07;11.00;;;7.18;;
28531;SDS011;15738;44.860;10.066;2022-09-01T01:03:55;10.18;;;6.95;;
28531;SDS011;15738;44.860;10.066;2022-09-01T01:06:43;14.38;;;6.75;;
28531;SDS011;15738;44.860;10.066;2022-09-01T01:09:35;12.40;;;7.10;;
28531;SDS011;15738;44.860;10.066;2022-09-01T01:12:24;9.25;;;7.47;;
28531;SDS011;15738;44.860;10.066;2022-09-01T01:15:14;11.77;;;8.30;;
28531;SDS011;15738;44.860;10.066;2022-09-01T01:18:01;12.20;;;8.45;;
28531;SDS011;15738;44.860;10.066;2022-09-01T01:20:47;12.90;;;8.38;;
28531;SDS011;15738;44.860;10.066;2022-09-01T01:24:17;10.15;;;7.53;;
28531;SDS011;15738;44.860;10.066;2022-09-01T01:27:07;10.27;;;7.07;;
28531;SDS011;15738;44.860;10.066;2022-09-01T01:29:53;13.68;;;7.00;;
28531;SDS011;15738;44.860;10.066;2022-09-01T01:32:39;18.73;;;8.05;;
28531;SDS011;15738;44.860;10.066;2022-09-01T01:35:27;16.77;;;7.60;;
28531;SDS011;15738;44.860;10.066;2022-09-01T01:38:14;12.10;;;7.47;;
28531;SDS011;15738;44.860;10.066;2022-09-01T01:41:00;10.70;;;7.55;;
28531;SDS011;15738;44.860;10.066;2022-09-01T01:43:47;13.32;;;6.97;;
28531;SDS011;15738;44.860;10.066;2022-09-01T01:46:38;10.65;;;7.05;;
28531;SDS011;15738;44.860;10.066;2022-09-01T01:49:27;20.90;;;7.90;;
28531;SDS011;15738;44.860;10.066;2022-09-01T01:52:15;13.90;;;8.55;;
28531;SDS011;15738;44.860;10.066;2022-09-01T01:55:03;15.80;;;8.13;;
28531;SDS011;15738;44.860;10.066;2022-09-01T01:57:58;16.05;;;8.48;;
28531;SDS011;15738;44.860;10.066;2022-09-01T02:00:46;18.77;;;8.52;;
28531;SDS011;15738;44.860;10.066;2022-09-01T02:03:33;17.95;;;8.55;;
28531;SDS011;15738;44.860;10.066;2022-09-01T02:06:23;12.88;;;7.30;;
28531;SDS011;15738;44.860;10.066;2022-09-01T02:09:14;10.88;;;7.75;;
28531;SDS011;15738;44.860;10.066;2022-09-01T02:12:01;16.27;;;7.78;;
28531;SDS011;15738;44.860;10.066;2022-09-01T02:14:49;11.15;;;8.10;;
28531;SDS011;15738;44.860;10.066;2022-09-01T02:17:35;19.35;;;7.97;;
28531;SDS011;15738;44.860;10.066;2022-09-01T02:20:23;12.55;;;8.27;;
28531;SDS011;15738;44.860;10.066;2022-09-01T02:23:14;13.93;;;9.18;;
28531;SDS011;15738;44.860;10.066;2022-09-01T02:26:04;13.90;;;7.97;;
28531;SDS011;15738;44.860;10.066;2022-09-01T02:29:07;15.75;;;9.52;;
28531;SDS011;15738;44.860;10.066;2022-09-01T02:32:02;15.02;;;9.25;;
28531;SDS011;15738;44.860;10.066;2022-09-01T02:34:48;17.38;;;9.73;;
28531;SDS011;15738;44.860;10.066;2022-09-01T02:37:38;16.42;;;8.57;;
28531;SDS011;15738;44.860;10.066;2022-09-01T02:40:25;18.33;;;10.00;;
28531;SDS011;15738;44.860;10.066;2022-09-01T02:43:16;21.33;;;9.48;;
28531;SDS011;15738;44.860;10.066;2022-09-01T02:46:06;23.88;;;10.20;;
28531;SDS011;15738;44.860;10.066;2022-09-01T02:48:52;15.98;;;9.60;;
28531;SDS011;15738;44.860;10.066;2022-09-01T02:51:38;15.77;;;10.18;;
28531;SDS011;15738;44.860;10.066;2022-09-01T02:54:24;17.70;;;10.23;;
28531;SDS011;15738;44.860;10.066;2022-09-01T02:57:12;20.15;;;9.55;;
28531;SDS011;15738;44.860;10.066;2022-09-01T02:59:57;14.55;;;9.40;;
28531;SDS011;15738;44.860;10.066;2022-09-01T03:02:43;18.02;;;9.75;;
28531;SDS011;15738;44.860;10.066;2022-09-01T03:05:30;18.55;;;9.93;;
28531;SDS011;15738;44.860;10.066;2022-09-01T03:08:16;14.60;;;10.13;;
28531;SDS011;15738;44.860;10.066;2022-09-01T03:11:04;12.38;;;9.75;;
28531;SDS011;15738;44.860;10.066;2022-09-01T03:13:57;15.35;;;9.32;;
28531;SDS011;15738;44.860;10.066;2022-09-01T03:16:45;13.45;;;10.05;;
28531;SDS011;15738;44.860;10.066;2022-09-01T03:19:31;24.38;;;10.43;;
28531;SDS011;15738;44.860;10.066;2022-09-01T03:22:26;24.02;;;10.40;;
28531;SDS011;15738;44.860;10.066;2022-09-01T03:25:13;13.85;;;9.57;;
28531;SDS011;15738;44.860;10.066;2022-09-01T03:28:00;14.73;;;8.55;;
28531;SDS011;15738;44.860;10.066;2022-09-01T03:30:52;22.17;;;8.85;;
28531;SDS011;15738;44.860;10.066;2022-09-01T03:33:39;17.10;;;9.38;;
28531;SDS011;15738;44.860;10.066;2022-09-01T03:36:33;15.18;;;9.10;;
28531;SDS011;15738;44.860;10.066;2022-09-01T03:39:19;17.83;;;9.00;;
28531;SDS011;15738;44.860;10.066;2022-09-01T03:42:05;15.02;;;8.48;;
28531;SDS011;15738;44.860;10.066;2022-09-01T03:44:54;12.15;;;8.45;;
28531;SDS011;15738;44.860;10.066;2022-09-01T03:47:41;22.73;;;9.15;;
28531;SDS011;15738;44.860;10.066;2022-09-01T03:50:27;14.25;;;10.07;;
28531;SDS011;15738;44.860;10.066;2022-09-01T03:53:18;14.60;;;9.57;;
28531;SDS011;15738;44.860;10.066;2022-09-01T03:56:09;15.75;;;9.77;;
28531;SDS011;15738;44.860;10.066;2022-09-01T03:58:56;15.05;;;10.52;;
28531;SDS011;15738;44.860;10.066;2022-09-01T04:01:43;15.30;;;10.30;;
28531;SDS011;15738;44.860;10.066;2022-09-01T04:04:29;18.75;;;10.20;;
28531;SDS011;15738;44.860;10.066;2022-09-01T04:07:17;22.02;;;11.05;;
28531;SDS011;15738;44.860;10.066;2022-09-01T04:10:04;19.90;;;10.82;;
28531;SDS011;15738;44.860;10.066;2022-09-01T04:12:50;16.85;;;10.57;;
28531;SDS011;15738;44.860;10.066;2022-09-01T04:15:36;13.90;;;10.05;;
28531;SDS011;15738;44.860;10.066;2022-09-01T04:18:24;16.42;;;9.63;;
28531;SDS011;15738;44.860;10.066;2022-09-01T04:21:10;15.32;;;9.60;;
28531;SDS011;15738;44.860;10.066;2022-09-01T04:23:58;14.80;;;9.25;;
28531;SDS011;15738;44.860;10.066;2022-09-01T04:26:50;21.25;;;9.85;;
28531;SDS011;15738;44.860;10.066;2022-09-01T04:29:37;15.50;;;9.65;;
28531;SDS011;15738;44.860;10.066;2022-09-01T04:32:23;16.58;;;9.68;;
28531;SDS011;15738;44.860;10.066;2022-09-01T04:35:12;15.02;;;9.18;;
28531;SDS011;15738;44.860;10.066;2022-09-01T04:38:01;14.05;;;9.38;;
28531;SDS011;15738;44.860;10.066;2022-09-01T04:40:47;18.63;;;10.25;;
28531;SDS011;15738;44.860;10.066;2022-09-01T04:43:34;14.93;;;9.60;;
28531;SDS011;15738;44.860;10.066;2022-09-01T04:46:20;13.82;;;9.13;;
28531;SDS011;15738;44.860;10.066;2022-09-01T04:49:07;19.10;;;10.88;;
28531;SDS011;15738;44.860;10.066;2022-09-01T04:51:58;16.50;;;9.52;;
28531;SDS011;15738;44.860;10.066;2022-09-01T04:54:44;15.75;;;9.85;;
28531;SDS011;15738;44.860;10.066;2022-09-01T04:57:30;22.58;;;10.45;;
28531;SDS011;15738;44.860;10.066;2022-09-01T05:00:18;21.92;;;10.95;;
28531;SDS011;15738;44.860;10.066;2022-09-01T05:03:08;16.33;;;10.40;;
28531;SDS011;15738;44.860;10.066;2022-09-01T05:06:16;16.20;;;10.60;;
28531;SDS011;15738;44.860;10.066;2022-09-01T05:09:10;21.38;;;10.95;;
28531;SDS011;15738;44.860;10.066;2022-09-01T05:12:13;16.13;;;11.25;;
28531;SDS011;15738;44.860;10.066;2022-09-01T05:15:03;17.58;;;11.35;;
28531;SDS011;15738;44.860;10.066;2022-09-01T05:17:50;19.52;;;10.75;;
28531;SDS011;15738;44.860;10.066;2022-09-01T05:20:39;16.30;;;11.30;;
28531;SDS011;15738;44.860;10.066;2022-09-01T05:23:26;18.73;;;12.02;;
28531;SDS011;15738;44.860;10.066;2022-09-01T05:26:15;19.05;;;12.38;;
28531;SDS011;15738;44.860;10.066;2022-09-01T05:29:05;20.60;;;13.30;;
28531;SDS011;15738;44.860;10.066;2022-09-01T05:31:58;25.77;;;12.80;;
28531;SDS011;15738;44.860;10.066;2022-09-01T05:34:44;18.88;;;11.85;;
28531;SDS011;15738;44.860;10.066;2022-09-01T05:37:32;33.92;;;12.98;;
28531;SDS011;15738;44.860;10.066;2022-09-01T05:40:18;21.27;;;12.52;;
28531;SDS011;15738;44.860;10.066;2022-09-01T05:43:04;19.42;;;11.60;;
28531;SDS011;15738;44.860;10.066;2022-09-01T05:45:51;18.52;;;12.75;;
28531;SDS011;15738;44.860;10.066;2022-09-01T05:48:52;18.88;;;13.05;;
28531;SDS011;15738;44.860;10.066;2022-09-01T05:51:41;34.65;;;13.07;;
28531;SDS011;15738;44.860;10.066;2022-09-01T05:54:31;27.60;;;12.80;;
28531;SDS011;15738;44.860;10.066;2022-09-01T05:57:17;18.88;;;12.23;;
28531;SDS011;15738;44.860;10.066;2022-09-01T06:00:18;18.38;;;12.15;;
28531;SDS011;15738;44.860;10.066;2022-09-01T06:03:06;16.88;;;12.43;;
28531;SDS011;15738;44.860;10.066;2022-09-01T06:06:02;23.25;;;12.40;;
28531;SDS011;15738;44.860;10.066;2022-09-01T06:08:57;19.20;;;13.20;;
28531;SDS011;15738;44.860;10.066;2022-09-01T06:11:45;22.40;;;13.32;;
28531;SDS011;15738;44.860;10.066;2022-09-01T06:14:31;39.13;;;15.15;;
28531;SDS011;15738;44.860;10.066;2022-09-01T06:17:20;37.60;;;14.73;;
28531;SDS011;15738;44.860;10.066;2022-09-01T06:20:10;23.85;;;13.48;;
28531;SDS011;15738;44.860;10.066;2022-09-01T06:22:59;20.30;;;13.48;;
28531;SDS011;15738;44.860;10.066;2022-09-01T06:25:46;30.60;;;13.20;;
28531;SDS011;15738;44.860;10.066;2022-09-01T06:28:37;29.52;;;14.98;;
28531;SDS011;15738;44.860;10.066;2022-09-01T06:31:25;26.85;;;14.80;;
28531;SDS011;15738;44.860;10.066;2022-09-01T06:34:23;55.22;;;15.07;;
